sensor_id;sensor_type;location;lat;lon;timestamp;P1;durP1;ratioP1;P2;durP2;ratioP2
56267;SDS011;42175;46.930;9.532;2022-10-31T00:02:23;13.68;;;3.03;;
56267;SDS011;42175;46.930;9.532;2022-10-31T00:04:49;17.88;;;3.47;;
56267;SDS011;42175;46.930;9.532;2022-10-31T00:07:15;13.07;;;2.95;;
56267;SDS011;42175;46.930;9.532;2022-10-31T00:09:40;9.75;;;2.90;;
56267;SDS011;42175;46.930;9.532;2022-10-31T00:12:06;17.10;;;2.95;;
56267;SDS011;42175;46.930;9.532;2022-10-31T00:14:32;9.57;;;2.58;;
56267;SDS011;42175;46.930;9.532;2022-10-31T00:16:57;8.23;;;2.55;;
56267;SDS011;42175;46.930;9.532;2022-10-31T00:19:23;12.73;;;3.28;;
56267;SDS011;42175;46.930;9.532;2022-10-31T00:21:51;8.25;;;3.10;;
56267;SDS011;42175;46.930;9.532;2022-10-31T00:24:17;10.20;;;2.55;;
56267;SDS011;42175;46.930;9.532;2022-10-31T00:26:42;7.60;;;2.60;;
56267;SDS011;42175;46.930;9.532;2022-10-31T00:29:08;11.45;;;3.45;;
56267;SDS011;42175;46.930;9.532;2022-10-31T00:31:35;14.73;;;3.58;;
56267;SDS011;42175;46.930;9.532;2022-10-31T00:34:00;10.23;;;2.90;;
56267;SDS011;42175;46.930;9.532;2022-10-31T00:36:27;7.38;;;2.22;;
56267;SDS011;42175;46.930;9.532;2022-10-31T00:38:53;7.72;;;2.30;;
56267;SDS011;42175;46.930;9.532;2022-10-31T00:41:19;9.40;;;2.78;;
56267;SDS011;42175;46.930;9.532;2022-10-31T00:43:45;12.10;;;2.90;;
56267;SDS011;42175;46.930;9.532;2022-10-31T00:46:11;9.40;;;3.33;;
56267;SDS011;42175;46.930;9.532;2022-10-31T00:48:38;11.10;;;2.67;;
56267;SDS011;42175;46.930;9.532;2022-10-31T00:51:04;9.30;;;2.55;;
56267;SDS011;42175;46.930;9.532;2022-10-31T00:53:30;8.27;;;2.80;;
56267;SDS011;42175;46.930;9.532;2022-10-31T00:55:56;8.63;;;3.08;;
56267;SDS011;42175;46.930;9.532;2022-10-31T00:58:22;13.20;;;3.92;;
56267;SDS011;42175;46.930;9.532;2022-10-31T01:00:48;10.80;;;2.75;;
56267;SDS011;42175;46.930;9.532;2022-10-31T01:03:20;12.48;;;3.15;;
56267;SDS011;42175;46.930;9.532;2022-10-31T01:08:24;9.27;;;3.00;;
56267;SDS011;42175;46.930;9.532;2022-10-31T01:13:26;17.98;;;4.30;;
56267;SDS011;42175;46.930;9.532;2022-10-31T01:15:55;9.93;;;2.72;;
56267;SDS011;42175;46.930;9.532;2022-10-31T01:18:22;11.27;;;2.92;;
56267;SDS011;42175;46.930;9.532;2022-10-31T01:20:56;14.43;;;3.22;;
56267;SDS011;42175;46.930;9.532;2022-10-31T01:23:26;10.65;;;2.67;;
56267;SDS011;42175;46.930;9.532;2022-10-31T01:26:15;13.43;;;3.88;;
56267;SDS011;42175;46.930;9.532;2022-10-31T01:28:44;9.70;;;2.85;;
56267;SDS011;42175;46.930;9.532;2022-10-31T01:31:12;12.57;;;3.28;;
56267;SDS011;42175;46.930;9.532;2022-10-31T01:33:38;14.35;;;3.25;;
56267;SDS011;42175;46.930;9.532;2022-10-31T01:36:10;10.23;;;2.78;;
56267;SDS011;42175;46.930;9.532;2022-10-31T01:38:45;13.20;;;3.60;;
56267;SDS011;42175;46.930;9.532;2022-10-31T01:41:13;11.70;;;3.33;;
56267;SDS011;42175;46.930;9.532;2022-10-31T01:43:44;9.93;;;2.45;;
56267;SDS011;42175;46.930;9.532;2022-10-31T01:46:16;11.40;;;2.70;;
56267;SDS011;42175;46.930;9.532;2022-10-31T01:48:49;12.32;;;2.97;;
56267;SDS011;42175;46.930;9.532;2022-10-31T01:51:16;11.60;;;3.47;;
56267;SDS011;42175;46.930;9.532;2022-10-31T01:53:44;11.90;;;3.20;;
56267;SDS011;42175;46.930;9.532;2022-10-31T01:56:12;9.23;;;2.58;;
56267;SDS011;42175;46.930;9.532;2022-10-31T01:58:40;14.95;;;3.00;;
56267;SDS011;42175;46.930;9.532;2022-10-31T02:01:07;15.38;;;3.20;;
56267;SDS011;42175;46.930;9.532;2022-10-31T02:03:33;9.30;;;3.85;;
56267;SDS011;42175;46.930;9.532;2022-10-31T02:05:59;11.20;;;2.75;;
56267;SDS011;42175;46.930;9.532;2022-10-31T02:08:28;13.05;;;3.47;;
56267;SDS011;42175;46.930;9.532;2022-10-31T02:10:56;15.23;;;2.88;;
56267;SDS011;42175;46.930;9.532;2022-10-31T02:13:23;14.63;;;3.30;;
56267;SDS011;42175;46.930;9.532;2022-10-31T02:15:54;11.38;;;2.47;;
56267;SDS011;42175;46.930;9.532;2022-10-31T02:18:22;16.60;;;3.67;;
56267;SDS011;42175;46.930;9.532;2022-10-31T02:36:13;10.35;;;2.67;;
56267;SDS011;42175;46.930;9.532;2022-10-31T02:44:14;17.58;;;3.70;;
56267;SDS011;42175;46.930;9.532;2022-10-31T02:46:57;6.38;;;2.30;;
56267;SDS011;42175;46.930;9.532;2022-10-31T02:51:56;9.85;;;2.72;;
56267;SDS011;42175;46.930;9.532;2022-10-31T02:54:23;16.75;;;3.15;;
56267;SDS011;42175;46.930;9.532;2022-10-31T02:56:52;12.73;;;2.67;;
56267;SDS011;42175;46.930;9.532;2022-10-31T02:59:25;11.25;;;2.47;;
56267;SDS011;42175;46.930;9.532;2022-10-31T03:12:50;10.15;;;2.80;;
56267;SDS011;42175;46.930;9.532;2022-10-31T03:15:32;11.25;;;3.00;;
56267;SDS011;42175;46.930;9.532;2022-10-31T03:18:07;7.35;;;2.33;;
56267;SDS011;42175;46.930;9.532;2022-10-31T03:20:41;14.25;;;3.15;;
56267;SDS011;42175;46.930;9.532;2022-10-31T03:23:14;9.40;;;2.67;;
56267;SDS011;42175;46.930;9.532;2022-10-31T03:25:42;13.80;;;2.90;;
56267;SDS011;42175;46.930;9.532;2022-10-31T03:28:10;15.32;;;3.33;;
56267;SDS011;42175;46.930;9.532;2022-10-31T03:30:41;12.63;;;3.13;;
56267;SDS011;42175;46.930;9.532;2022-10-31T03:33:10;9.63;;;3.33;;
56267;SDS011;42175;46.930;9.532;2022-10-31T03:35:41;11.32;;;2.85;;
56267;SDS011;42175;46.930;9.532;2022-10-31T03:38:10;10.40;;;2.38;;
56267;SDS011;42175;46.930;9.532;2022-10-31T03:40:38;16.85;;;2.80;;
56267;SDS011;42175;46.930;9.532;2022-10-31T03:43:09;13.85;;;3.00;;
56267;SDS011;42175;46.930;9.532;2022-10-31T03:45:41;13.03;;;3.07;;
56267;SDS011;42175;46.930;9.532;2022-10-31T03:48:10;9.55;;;2.92;;
56267;SDS011;42175;46.930;9.532;2022-10-31T03:50:39;15.45;;;3.25;;
56267;SDS011;42175;46.930;9.532;2022-10-31T03:53:10;12.48;;;2.67;;
56267;SDS011;42175;46.930;9.532;2022-10-31T03:55:59;10.93;;;3.50;;
56267;SDS011;42175;46.930;9.532;2022-10-31T03:58:35;9.82;;;2.88;;
56267;SDS011;42175;46.930;9.532;2022-10-31T04:01:06;9.32;;;2.92;;
56267;SDS011;42175;46.930;9.532;2022-10-31T04:03:36;9.98;;;2.72;;
56267;SDS011;42175;46.930;9.532;2022-10-31T04:06:05;16.05;;;2.70;;
56267;SDS011;42175;46.930;9.532;2022-10-31T04:08:33;12.55;;;2.90;;
56267;SDS011;42175;46.930;9.532;2022-10-31T04:11:06;9.55;;;2.25;;
56267;SDS011;42175;46.930;9.532;2022-10-31T04:13:34;9.15;;;2.30;;
56267;SDS011;42175;46.930;9.532;2022-10-31T04:16:04;14.18;;;3.38;;
56267;SDS011;42175;46.930;9.532;2022-10-31T04:18:30;9.80;;;2.97;;
56267;SDS011;42175;46.930;9.532;2022-10-31T04:21:00;11.90;;;3.25;;
56267;SDS011;42175;46.930;9.532;2022-10-31T04:23:28;8.90;;;2.45;;
56267;SDS011;42175;46.930;9.532;2022-10-31T04:25:54;7.47;;;2.72;;
56267;SDS011;42175;46.930;9.532;2022-10-31T04:28:20;13.90;;;4.55;;
56267;SDS011;42175;46.930;9.532;2022-10-31T04:30:46;7.95;;;2.30;;
56267;SDS011;42175;46.930;9.532;2022-10-31T04:33:11;12.38;;;2.65;;
56267;SDS011;42175;46.930;9.532;2022-10-31T04:35:37;8.88;;;2.35;;
56267;SDS011;42175;46.930;9.532;2022-10-31T04:38:03;12.13;;;3.15;;
56267;SDS011;42175;46.930;9.532;2022-10-31T04:40:29;13.15;;;2.75;;
56267;SDS011;42175;46.930;9.532;2022-10-31T04:42:54;12.82;;;3.22;;
56267;SDS011;42175;46.930;9.532;2022-10-31T04:45:20;10.10;;;2.88;;
56267;SDS011;42175;46.930;9.532;2022-10-31T04:47:46;13.75;;;2.47;;
56267;SDS011;42175;46.930;9.532;2022-10-31T04:50:12;9.45;;;2.58;;
56267;SDS011;42175;46.930;9.532;2022-10-31T04:52:41;13.27;;;2.65;;
56267;SDS011;42175;46.930;9.532;2022-10-31T04:55:08;12.02;;;3.10;;
56267;SDS011;42175;46.930;9.532;2022-10-31T04:57:41;9.90;;;2.60;;
56267;SDS011;42175;46.930;9.532;2022-10-31T05:00:10;11.60;;;3.42;;
56267;SDS011;42175;46.930;9.532;2022-10-31T05:02:53;14.10;;;2.75;;
56267;SDS011;42175;46.930;9.532;2022-10-31T05:05:22;10.03;;;2.60;;
56267;SDS011;42175;46.930;9.532;2022-10-31T05:07:51;8.68;;;2.55;;
56267;SDS011;42175;46.930;9.532;2022-10-31T05:10:18;10.75;;;3.28;;
56267;SDS011;42175;46.930;9.532;2022-10-31T05:12:59;15.73;;;3.90;;
56267;SDS011;42175;46.930;9.532;2022-10-31T05:15:26;10.50;;;2.70;;
56267;SDS011;42175;46.930;9.532;2022-10-31T05:17:52;9.07;;;3.35;;
56267;SDS011;42175;46.930;9.532;2022-10-31T05:20:19;13.05;;;2.90;;
56267;SDS011;42175;46.930;9.532;2022-10-31T05:22:48;11.55;;;3.92;;
56267;SDS011;42175;46.930;9.532;2022-10-31T05:25:15;14.00;;;3.33;;
56267;SDS011;42175;46.930;9.532;2022-10-31T05:27:42;17.17;;;4.10;;
56267;SDS011;42175;46.930;9.532;2022-10-31T05:30:11;10.48;;;2.95;;
56267;SDS011;42175;46.930;9.532;2022-10-31T05:32:40;10.43;;;2.58;;
56267;SDS011;42175;46.930;9.532;2022-10-31T05:35:11;13.63;;;2.42;;
56267;SDS011;42175;46.930;9.532;2022-10-31T05:37:40;13.10;;;3.85;;
56267;SDS011;42175;46.930;9.532;2022-10-31T05:40:07;9.75;;;2.70;;
56267;SDS011;42175;46.930;9.532;2022-10-31T05:42:34;14.50;;;3.45;;
56267;SDS011;42175;46.930;9.532;2022-10-31T05:45:03;13.88;;;3.25;;
56267;SDS011;42175;46.930;9.532;2022-10-31T05:47:29;7.35;;;2.72;;
56267;SDS011;42175;46.930;9.532;2022-10-31T05:49:54;7.50;;;2.28;;
56267;SDS011;42175;46.930;9.532;2022-10-31T05:52:20;11.30;;;2.60;;
56267;SDS011;42175;46.930;9.532;2022-10-31T05:54:46;9.70;;;2.70;;
56267;SDS011;42175;46.930;9.532;2022-10-31T05:57:12;16.00;;;3.83;;
56267;SDS011;42175;46.930;9.532;2022-10-31T05:59:37;9.68;;;2.60;;
56267;SDS011;42175;46.930;9.532;2022-10-31T06:02:03;7.40;;;3.10;;
56267;SDS011;42175;46.930;9.532;2022-10-31T06:04:29;11.27;;;3.42;;
56267;SDS011;42175;46.930;9.532;2022-10-31T06:06:56;13.88;;;4.03;;
56267;SDS011;42175;46.930;9.532;2022-10-31T06:09:22;12.85;;;2.70;;
56267;SDS011;42175;46.930;9.532;2022-10-31T06:11:47;13.35;;;3.50;;
56267;SDS011;42175;46.930;9.532;2022-10-31T06:14:13;8.73;;;2.67;;
56267;SDS011;42175;46.930;9.532;2022-10-31T06:16:39;7.25;;;2.47;;
56267;SDS011;42175;46.930;9.532;2022-10-31T06:19:05;18.52;;;3.78;;
56267;SDS011;42175;46.930;9.532;2022-10-31T06:21:30;16.52;;;3.58;;
56267;SDS011;42175;46.930;9.532;2022-10-31T06:23:56;21.80;;;3.03;;
56267;SDS011;42175;46.930;9.532;2022-10-31T06:26:22;10.38;;;3.08;;
56267;SDS011;42175;46.930;9.532;2022-10-31T06:28:48;13.18;;;3.67;;
56267;SDS011;42175;46.930;9.532;2022-10-31T06:31:13;19.48;;;3.28;;
56267;SDS011;42175;46.930;9.532;2022-10-31T06:33:41;22.63;;;4.32;;
56267;SDS011;42175;46.930;9.532;2022-10-31T06:36:07;19.48;;;3.50;;
56267;SDS011;42175;46.930;9.532;2022-10-31T06:38:33;18.95;;;3.30;;
56267;SDS011;42175;46.930;9.532;2022-10-31T06:41:03;34.35;;;5.97;;
56267;SDS011;42175;46.930;9.532;2022-10-31T06:43:29;26.30;;;4.35;;
56267;SDS011;42175;46.930;9.532;2022-10-31T06:45:56;34.22;;;4.63;;
56267;SDS011;42175;46.930;9.532;2022-10-31T06:48:21;29.73;;;5.80;;
56267;SDS011;42175;46.930;9.532;2022-10-31T06:50:47;31.80;;;6.18;;
56267;SDS011;42175;46.930;9.532;2022-10-31T06:53:13;45.60;;;7.93;;
56267;SDS011;42175;46.930;9.532;2022-10-31T06:55:39;24.33;;;5.25;;
56267;SDS011;42175;46.930;9.532;2022-10-31T06:58:05;23.23;;;6.55;;
56267;SDS011;42175;46.930;9.532;2022-10-31T07:00:32;23.90;;;6.25;;
56267;SDS011;42175;46.930;9.532;2022-10-31T07:03:02;20.58;;;6.03;;
56267;SDS011;42175;46.930;9.532;2022-10-31T07:05:29;24.92;;;5.32;;
56267;SDS011;42175;46.930;9.532;2022-10-31T07:07:56;19.52;;;4.68;;
56267;SDS011;42175;46.930;9.532;2022-10-31T07:10:24;15.57;;;4.63;;
56267;SDS011;42175;46.930;9.532;2022-10-31T07:12:57;23.38;;;4.20;;
56267;SDS011;42175;46.930;9.532;2022-10-31T07:15:29;18.13;;;4.50;;
56267;SDS011;42175;46.930;9.532;2022-10-31T07:18:01;19.98;;;3.78;;
56267;SDS011;42175;46.930;9.532;2022-10-31T07:20:31;17.63;;;3.75;;
56267;SDS011;42175;46.930;9.532;2022-10-31T07:22:57;20.67;;;4.93;;
56267;SDS011;42175;46.930;9.532;2022-10-31T07:25:23;20.35;;;4.93;;
56267;SDS011;42175;46.930;9.532;2022-10-31T07:27:50;18.63;;;4.05;;
56267;SDS011;42175;46.930;9.532;2022-10-31T07:30:16;15.13;;;4.07;;
56267;SDS011;42175;46.930;9.532;2022-10-31T07:32:46;19.17;;;4.15;;
56267;SDS011;42175;46.930;9.532;2022-10-31T07:35:19;16.20;;;3.95;;
56267;SDS011;42175;46.930;9.532;2022-10-31T07:37:50;15.57;;;3.10;;
56267;SDS011;42175;46.930;9.532;2022-10-31T07:40:16;17.92;;;3.55;;
56267;SDS011;42175;46.930;9.532;2022-10-31T07:42:43;17.88;;;3.38;;
56267;SDS011;42175;46.930;9.532;2022-10-31T07:45:11;21.33;;;4.97;;
56267;SDS011;42175;46.930;9.532;2022-10-31T07:47:42;18.77;;;3.60;;
56267;SDS011;42175;46.930;9.532;2022-10-31T07:50:16;9.02;;;3.55;;
56267;SDS011;42175;46.930;9.532;2022-10-31T07:52:43;15.45;;;4.07;;
56267;SDS011;42175;46.930;9.532;2022-10-31T07:55:09;15.25;;;4.15;;
56267;SDS011;42175;46.930;9.532;2022-10-31T07:57:35;15.18;;;3.50;;
56267;SDS011;42175;46.930;9.532;2022-10-31T08:00:03;17.50;;;3.67;;
56267;SDS011;42175;46.930;9.532;2022-10-31T08:02:29;10.20;;;3.22;;
56267;SDS011;42175;46.930;9.532;2022-10-31T08:04:55;18.88;;;4.32;;
56267;SDS011;42175;46.930;9.532;2022-10-31T08:07:21;10.32;;;3.40;;
56267;SDS011;42175;46.930;9.532;2022-10-31T08:09:47;13.48;;;3.17;;
56267;SDS011;42175;46.930;9.532;2022-10-31T08:12:12;13.70;;;3.25;;
56267;SDS011;42175;46.930;9.532;2022-10-31T08:14:38;19.83;;;4.18;;
56267;SDS011;42175;46.930;9.532;2022-10-31T08:17:04;13.48;;;3.97;;
56267;SDS011;42175;46.930;9.532;2022-10-31T08:19:29;12.77;;;3.58;;
56267;SDS011;42175;46.930;9.532;2022-10-31T08:21:55;10.88;;;3.28;;
56267;SDS011;42175;46.930;9.532;2022-10-31T08:24:21;14.00;;;3.85;;
56267;SDS011;42175;46.930;9.532;2022-10-31T08:26:47;12.02;;;4.05;;
56267;SDS011;42175;46.930;9.532;2022-10-31T08:29:13;15.40;;;4.00;;
56267;SDS011;42175;46.930;9.532;2022-10-31T08:31:39;14.73;;;3.30;;
56267;SDS011;42175;46.930;9.532;2022-10-31T08:34:05;10.60;;;3.70;;
56267;SDS011;42175;46.930;9.532;2022-10-31T08:36:31;16.60;;;3.38;;
56267;SDS011;42175;46.930;9.532;2022-10-31T08:38:57;16.88;;;3.33;;
56267;SDS011;42175;46.930;9.532;2022-10-31T08:41:22;20.83;;;4.45;;
56267;SDS011;42175;46.930;9.532;2022-10-31T08:43:48;16.73;;;3.67;;
56267;SDS011;42175;46.930;9.532;2022-10-31T08:46:14;15.82;;;3.95;;
56267;SDS011;42175;46.930;9.532;2022-10-31T08:48:40;20.13;;;3.78;;
56267;SDS011;42175;46.930;9.532;2022-10-31T08:51:06;16.63;;;3.83;;
56267;SDS011;42175;46.930;9.532;2022-10-31T08:53:33;19.40;;;4.38;;
56267;SDS011;42175;46.930;9.532;2022-10-31T08:55:59;21.02;;;3.53;;
56267;SDS011;42175;46.930;9.532;2022-10-31T08:58:25;15.73;;;3.50;;
56267;SDS011;42175;46.930;9.532;2022-10-31T09:00:51;17.83;;;3.58;;
56267;SDS011;42175;46.930;9.532;2022-10-31T09:03:22;18.35;;;3.92;;
56267;SDS011;42175;46.930;9.532;2022-10-31T09:05:49;11.65;;;2.88;;
56267;SDS011;42175;46.930;9.532;2022-10-31T09:08:19;13.85;;;3.63;;
56267;SDS011;42175;46.930;9.532;2022-10-31T09:10:44;18.35;;;3.90;;
56267;SDS011;42175;46.930;9.532;2022-10-31T09:13:14;17.52;;;3.70;;
56267;SDS011;42175;46.930;9.532;2022-10-31T09:15:44;18.38;;;4.03;;
56267;SDS011;42175;46.930;9.532;2022-10-31T09:18:13;20.42;;;4.78;;
56267;SDS011;42175;46.930;9.532;2022-10-31T09:20:40;24.20;;;4.00;;
56267;SDS011;42175;46.930;9.532;2022-10-31T09:23:09;17.13;;;4.50;;
56267;SDS011;42175;46.930;9.532;2022-10-31T09:25:36;29.65;;;5.65;;
56267;SDS011;42175;46.930;9.532;2022-10-31T09:28:03;31.02;;;5.53;;
56267;SDS011;42175;46.930;9.532;2022-10-31T09:30:31;36.05;;;5.13;;
56267;SDS011;42175;46.930;9.532;2022-10-31T09:33:02;19.98;;;4.22;;
56267;SDS011;42175;46.930;9.532;2022-10-31T09:35:29;22.40;;;4.82;;
56267;SDS011;42175;46.930;9.532;2022-10-31T09:37:59;28.85;;;5.03;;
56267;SDS011;42175;46.930;9.532;2022-10-31T09:40:47;26.20;;;4.93;;
56267;SDS011;42175;46.930;9.532;2022-10-31T09:49:51;28.08;;;5.70;;
56267;SDS011;42175;46.930;9.532;2022-10-31T09:52:39;26.60;;;4.38;;
56267;SDS011;42175;46.930;9.532;2022-10-31T09:55:14;25.45;;;4.80;;
56267;SDS011;42175;46.930;9.532;2022-10-31T09:57:43;18.00;;;5.05;;
56267;SDS011;42175;46.930;9.532;2022-10-31T10:00:20;27.17;;;6.05;;
56267;SDS011;42175;46.930;9.532;2022-10-31T10:02:49;22.52;;;5.85;;
56267;SDS011;42175;46.930;9.532;2022-10-31T10:05:51;18.02;;;3.83;;
56267;SDS011;42175;46.930;9.532;2022-10-31T10:08:25;25.55;;;4.88;;
56267;SDS011;42175;46.930;9.532;2022-10-31T10:11:02;19.30;;;3.90;;
56267;SDS011;42175;46.930;9.532;2022-10-31T10:19:34;18.52;;;4.75;;
56267;SDS011;42175;46.930;9.532;2022-10-31T10:25:37;19.55;;;4.95;;
56267;SDS011;42175;46.930;9.532;2022-10-31T10:30:40;19.05;;;4.85;;
56267;SDS011;42175;46.930;9.532;2022-10-31T10:33:10;18.13;;;4.78;;
56267;SDS011;42175;46.930;9.532;2022-10-31T10:35:47;16.55;;;4.85;;
56267;SDS011;42175;46.930;9.532;2022-10-31T10:41:03;18.25;;;3.92;;
56267;SDS011;42175;46.930;9.532;2022-10-31T10:43:38;16.75;;;4.20;;
56267;SDS011;42175;46.930;9.532;2022-10-31T10:49:04;26.20;;;5.75;;
56267;SDS011;42175;46.930;9.532;2022-10-31T10:59:43;17.73;;;4.07;;
56267;SDS011;42175;46.930;9.532;2022-10-31T11:05:09;11.93;;;4.43;;
56267;SDS011;42175;46.930;9.532;2022-10-31T11:07:48;20.75;;;5.63;;
56267;SDS011;42175;46.930;9.532;2022-10-31T11:10:14;16.73;;;5.88;;
56267;SDS011;42175;46.930;9.532;2022-10-31T11:12:42;18.73;;;5.88;;
56267;SDS011;42175;46.930;9.532;2022-10-31T11:15:22;17.48;;;4.55;;
56267;SDS011;42175;46.930;9.532;2022-10-31T11:17:51;17.08;;;4.30;;
56267;SDS011;42175;46.930;9.532;2022-10-31T11:22:46;14.48;;;4.25;;
56267;SDS011;42175;46.930;9.532;2022-10-31T11:27:58;18.58;;;4.10;;
56267;SDS011;42175;46.930;9.532;2022-10-31T11:30:45;13.75;;;4.30;;
56267;SDS011;42175;46.930;9.532;2022-10-31T11:33:32;14.85;;;4.85;;
56267;SDS011;42175;46.930;9.532;2022-10-31T11:36:04;18.00;;;4.20;;
56267;SDS011;42175;46.930;9.532;2022-10-31T11:38:52;9.57;;;3.67;;
56267;SDS011;42175;46.930;9.532;2022-10-31T11:41:29;19.90;;;4.00;;
56267;SDS011;42175;46.930;9.532;2022-10-31T11:44:02;14.63;;;4.68;;
56267;SDS011;42175;46.930;9.532;2022-10-31T11:49:11;10.27;;;4.10;;
56267;SDS011;42175;46.930;9.532;2022-10-31T11:51:46;15.45;;;3.75;;
56267;SDS011;42175;46.930;9.532;2022-10-31T11:54:25;17.65;;;3.65;;
56267;SDS011;42175;46.930;9.532;2022-10-31T11:56:51;18.50;;;4.05;;
56267;SDS011;42175;46.930;9.532;2022-10-31T11:59:19;15.07;;;4.55;;
56267;SDS011;42175;46.930;9.532;2022-10-31T12:02:00;13.90;;;4.35;;
56267;SDS011;42175;46.930;9.532;2022-10-31T12:04:36;11.32;;;3.25;;
56267;SDS011;42175;46.930;9.532;2022-10-31T12:07:09;16.10;;;4.00;;
56267;SDS011;42175;46.930;9.532;2022-10-31T12:09:35;19.27;;;4.07;;
56267;SDS011;42175;46.930;9.532;2022-10-31T12:12:22;14.98;;;4.93;;
56267;SDS011;42175;46.930;9.532;2022-10-31T12:15:31;15.18;;;4.63;;
56267;SDS011;42175;46.930;9.532;2022-10-31T12:29:44;17.45;;;3.45;;
56267;SDS011;42175;46.930;9.532;2022-10-31T12:35:13;13.65;;;4.05;;
56267;SDS011;42175;46.930;9.532;2022-10-31T12:45:57;13.13;;;3.97;;
56267;SDS011;42175;46.930;9.532;2022-10-31T12:53:52;12.90;;;4.15;;
56267;SDS011;42175;46.930;9.532;2022-10-31T12:59:40;14.98;;;3.83;;
56267;SDS011;42175;46.930;9.532;2022-10-31T13:07:10;19.83;;;3.95;;
56267;SDS011;42175;46.930;9.532;2022-10-31T13:09:51;10.95;;;3.90;;
56267;SDS011;42175;46.930;9.532;2022-10-31T13:12:32;9.30;;;3.50;;
56267;SDS011;42175;46.930;9.532;2022-10-31T13:15:03;11.02;;;3.55;;
56267;SDS011;42175;46.930;9.532;2022-10-31T13:18:23;8.77;;;3.60;;
56267;SDS011;42175;46.930;9.532;2022-10-31T13:20:43;13.13;;;4.03;;
56267;SDS011;42175;46.930;9.532;2022-10-31T13:25:54;11.45;;;4.30;;
56267;SDS011;42175;46.930;9.532;2022-10-31T13:28:35;8.25;;;3.55;;
56267;SDS011;42175;46.930;9.532;2022-10-31T13:31:17;15.18;;;3.75;;
56267;SDS011;42175;46.930;9.532;2022-10-31T13:33:44;22.77;;;3.50;;
56267;SDS011;42175;46.930;9.532;2022-10-31T13:38:55;12.20;;;3.38;;
56267;SDS011;42175;46.930;9.532;2022-10-31T13:41:48;10.30;;;3.00;;
56267;SDS011;42175;46.930;9.532;2022-10-31T13:44:18;22.88;;;3.53;;
56267;SDS011;42175;46.930;9.532;2022-10-31T13:46:49;15.15;;;3.50;;
56267;SDS011;42175;46.930;9.532;2022-10-31T13:50:02;16.70;;;3.80;;
56267;SDS011;42175;46.930;9.532;2022-10-31T13:54:37;14.90;;;3.40;;
56267;SDS011;42175;46.930;9.532;2022-10-31T13:57:18;25.33;;;3.45;;
56267;SDS011;42175;46.930;9.532;2022-10-31T14:02:48;7.95;;;3.67;;
56267;SDS011;42175;46.930;9.532;2022-10-31T14:05:23;18.17;;;4.13;;
56267;SDS011;42175;46.930;9.532;2022-10-31T14:07:54;15.50;;;3.28;;
56267;SDS011;42175;46.930;9.532;2022-10-31T14:12:52;15.88;;;3.40;;
56267;SDS011;42175;46.930;9.532;2022-10-31T14:15:28;15.75;;;3.08;;
56267;SDS011;42175;46.930;9.532;2022-10-31T14:20:26;17.30;;;4.82;;
56267;SDS011;42175;46.930;9.532;2022-10-31T14:23:13;14.27;;;3.17;;
56267;SDS011;42175;46.930;9.532;2022-10-31T14:25:53;12.20;;;3.03;;
56267;SDS011;42175;46.930;9.532;2022-10-31T14:28:31;15.77;;;3.65;;
56267;SDS011;42175;46.930;9.532;2022-10-31T14:30:59;12.90;;;2.33;;
56267;SDS011;42175;46.930;9.532;2022-10-31T14:33:26;10.70;;;2.42;;
56267;SDS011;42175;46.930;9.532;2022-10-31T14:39:10;14.07;;;2.83;;
56267;SDS011;42175;46.930;9.532;2022-10-31T14:41:54;13.88;;;2.60;;
56267;SDS011;42175;46.930;9.532;2022-10-31T14:44:41;12.80;;;2.70;;
56267;SDS011;42175;46.930;9.532;2022-10-31T14:52:48;16.02;;;2.45;;
56267;SDS011;42175;46.930;9.532;2022-10-31T14:55:17;14.82;;;2.42;;
56267;SDS011;42175;46.930;9.532;2022-10-31T15:00:42;11.70;;;2.33;;
56267;SDS011;42175;46.930;9.532;2022-10-31T15:03:15;9.77;;;2.72;;
56267;SDS011;42175;46.930;9.532;2022-10-31T15:05:47;12.07;;;3.17;;
56267;SDS011;42175;46.930;9.532;2022-10-31T15:11:03;13.60;;;2.35;;
56267;SDS011;42175;46.930;9.532;2022-10-31T15:16:13;12.52;;;2.20;;
56267;SDS011;42175;46.930;9.532;2022-10-31T15:19:02;13.93;;;4.35;;
56267;SDS011;42175;46.930;9.532;2022-10-31T15:21:33;8.00;;;2.35;;
56267;SDS011;42175;46.930;9.532;2022-10-31T15:24:01;9.50;;;2.25;;
56267;SDS011;42175;46.930;9.532;2022-10-31T15:26:37;11.15;;;2.15;;
56267;SDS011;42175;46.930;9.532;2022-10-31T15:29:15;13.13;;;3.10;;
56267;SDS011;42175;46.930;9.532;2022-10-31T15:31:54;9.70;;;2.25;;
56267;SDS011;42175;46.930;9.532;2022-10-31T15:34:23;11.55;;;2.40;;
56267;SDS011;42175;46.930;9.532;2022-10-31T15:37:16;9.15;;;1.95;;
56267;SDS011;42175;46.930;9.532;2022-10-31T15:39:44;13.18;;;3.00;;
56267;SDS011;42175;46.930;9.532;2022-10-31T15:44:46;7.57;;;2.17;;
56267;SDS011;42175;46.930;9.532;2022-10-31T15:47:33;9.25;;;2.40;;
56267;SDS011;42175;46.930;9.532;2022-10-31T15:50:00;12.13;;;2.78;;
56267;SDS011;42175;46.930;9.532;2022-10-31T15:54:56;14.07;;;2.33;;
56267;SDS011;42175;46.930;9.532;2022-10-31T15:59:55;10.05;;;2.33;;
56267;SDS011;42175;46.930;9.532;2022-10-31T16:02:21;9.77;;;2.72;;
56267;SDS011;42175;46.930;9.532;2022-10-31T16:04:50;15.45;;;2.40;;
56267;SDS011;42175;46.930;9.532;2022-10-31T16:07:25;7.32;;;2.35;;
56267;SDS011;42175;46.930;9.532;2022-10-31T16:09:59;10.80;;;2.58;;
56267;SDS011;42175;46.930;9.532;2022-10-31T16:12:29;6.15;;;2.13;;
56267;SDS011;42175;46.930;9.532;2022-10-31T16:15:02;11.77;;;2.15;;
56267;SDS011;42175;46.930;9.532;2022-10-31T16:17:30;10.05;;;2.53;;
56267;SDS011;42175;46.930;9.532;2022-10-31T16:20:03;12.45;;;2.60;;
56267;SDS011;42175;46.930;9.532;2022-10-31T16:22:33;11.65;;;3.17;;
56267;SDS011;42175;46.930;9.532;2022-10-31T16:25:05;8.10;;;2.15;;
56267;SDS011;42175;46.930;9.532;2022-10-31T16:27:40;7.82;;;2.03;;
56267;SDS011;42175;46.930;9.532;2022-10-31T16:30:29;7.05;;;2.78;;
56267;SDS011;42175;46.930;9.532;2022-10-31T16:33:19;6.32;;;1.90;;
56267;SDS011;42175;46.930;9.532;2022-10-31T16:35:51;6.45;;;1.98;;
56267;SDS011;42175;46.930;9.532;2022-10-31T16:38:17;6.30;;;1.77;;
56267;SDS011;42175;46.930;9.532;2022-10-31T16:40:43;7.28;;;2.20;;
56267;SDS011;42175;46.930;9.532;2022-10-31T16:43:13;7.93;;;2.40;;
56267;SDS011;42175;46.930;9.532;2022-10-31T16:45:43;5.97;;;1.77;;
56267;SDS011;42175;46.930;9.532;2022-10-31T16:48:15;7.32;;;2.00;;
56267;SDS011;42175;46.930;9.532;2022-10-31T16:53:11;8.95;;;2.35;;
56267;SDS011;42175;46.930;9.532;2022-10-31T16:58:12;8.32;;;2.03;;
56267;SDS011;42175;46.930;9.532;2022-10-31T17:00:45;8.60;;;2.15;;
56267;SDS011;42175;46.930;9.532;2022-10-31T17:03:11;7.15;;;2.03;;
56267;SDS011;42175;46.930;9.532;2022-10-31T17:05:37;14.23;;;3.13;;
56267;SDS011;42175;46.930;9.532;2022-10-31T17:08:03;8.45;;;2.38;;
56267;SDS011;42175;46.930;9.532;2022-10-31T17:10:28;23.30;;;3.13;;
56267;SDS011;42175;46.930;9.532;2022-10-31T17:12:54;7.68;;;2.05;;
56267;SDS011;42175;46.930;9.532;2022-10-31T17:15:25;7.82;;;2.00;;
56267;SDS011;42175;46.930;9.532;2022-10-31T17:17:53;9.10;;;1.75;;
56267;SDS011;42175;46.930;9.532;2022-10-31T17:22:46;9.77;;;2.17;;
56267;SDS011;42175;46.930;9.532;2022-10-31T17:25:14;14.05;;;2.72;;
56267;SDS011;42175;46.930;9.532;2022-10-31T17:27:41;10.18;;;3.03;;
56267;SDS011;42175;46.930;9.532;2022-10-31T17:30:08;9.23;;;2.33;;
56267;SDS011;42175;46.930;9.532;2022-10-31T17:32:36;10.82;;;2.38;;
56267;SDS011;42175;46.930;9.532;2022-10-31T17:35:02;7.22;;;2.15;;
56267;SDS011;42175;46.930;9.532;2022-10-31T17:37:27;6.03;;;1.88;;
56267;SDS011;42175;46.930;9.532;2022-10-31T17:39:53;8.30;;;2.08;;
56267;SDS011;42175;46.930;9.532;2022-10-31T17:42:19;6.50;;;2.15;;
56267;SDS011;42175;46.930;9.532;2022-10-31T17:44:45;10.30;;;2.10;;